createdAt,value
2019-06-26T00:04:58.651Z,13.25
2019-06-26T00:10:07.700Z,16.62
2019-06-26T00:15:14.892Z,14.40
2019-06-26T00:20:18.050Z,16.10
2019-06-26T00:25:40.693Z,14.98
2019-06-26T00:30:56.918Z,13.90
2019-06-26T00:36:09.554Z,15.18
2019-06-26T00:41:23.102Z,15.15
2019-06-26T00:46:27.040Z,14.47
2019-06-26T00:51:34.324Z,14.55
2019-06-26T00:56:38.770Z,15.30
2019-06-26T01:01:44.162Z,15.43
2019-06-26T01:07:05.717Z,15.35
2019-06-26T01:12:09.957Z,16.70
2019-06-26T01:17:29.766Z,16.73
2019-06-26T01:22:40.438Z,14.85
2019-06-26T01:33:13.120Z,15.03
2019-06-26T01:38:17.320Z,15.93
2019-06-26T01:43:20.258Z,16.30
2019-06-26T01:48:23.038Z,16.65
2019-06-26T01:53:25.405Z,16.87
2019-06-26T01:58:28.320Z,16.07
2019-06-26T02:03:31.476Z,17.57
2019-06-26T02:08:33.552Z,16.52
2019-06-26T02:13:42.257Z,19.70
2019-06-26T02:18:59.076Z,16.02
2019-06-26T02:24:01.664Z,16.97
2019-06-26T02:29:19.614Z,16.95
2019-06-26T02:34:21.875Z,16.17
2019-06-26T02:39:27.901Z,18.27
2019-06-26T02:44:51.460Z,19.25
2019-06-26T02:49:38.851Z,16.80
2019-06-26T02:54:43.087Z,17.02
2019-06-26T02:59:45.488Z,16.25
2019-06-26T03:04:50.630Z,16.65
2019-06-26T03:09:53.669Z,16.05
2019-06-26T03:15:08.163Z,15.43
2019-06-26T03:20:02.543Z,17.77
2019-06-26T03:25:06.110Z,18.48
2019-06-26T03:30:10.424Z,17.77
2019-06-26T03:35:13.117Z,16.97
2019-06-26T03:40:15.599Z,16.90
2019-06-26T03:45:25.611Z,16.85
2019-06-26T03:50:24.790Z,17.02
2019-06-26T03:55:34.299Z,18.77
2019-06-26T04:00:41.170Z,16.05
2019-06-26T04:05:45.754Z,18.42
2019-06-26T04:10:47.846Z,17.20
2019-06-26T04:15:51.063Z,20.23
2019-06-26T04:20:56.098Z,19.55
2019-06-26T04:26:01.547Z,19.50
2019-06-26T04:31:06.954Z,18.57
2019-06-26T04:36:09.682Z,21.62
2019-06-26T04:41:14.223Z,17.05
2019-06-26T04:46:19.321Z,17.30
2019-06-26T04:51:23.641Z,17.30
2019-06-26T04:56:25.694Z,20.88
2019-06-26T05:01:27.777Z,21.97
2019-06-26T05:06:32.817Z,26.15
2019-06-26T05:11:35.890Z,20.15
2019-06-26T05:16:39.744Z,23.30
2019-06-26T05:21:42.354Z,21.87
2019-06-26T05:26:44.392Z,23.95
2019-06-26T05:31:49.571Z,24.30
2019-06-26T05:36:55.281Z,20.90
2019-06-26T05:41:59.011Z,19.62
2019-06-26T05:47:01.041Z,18.98
2019-06-26T05:52:05.115Z,18.90
2019-06-26T05:57:07.532Z,20.92
2019-06-26T06:02:09.843Z,20.90
2019-06-26T06:07:12.519Z,18.25
2019-06-26T06:12:15.328Z,22.58
2019-06-26T06:17:19.316Z,22.87
2019-06-26T06:22:22.534Z,21.57
2019-06-26T06:27:26.916Z,18.52
2019-06-26T06:32:30.985Z,21.60
2019-06-26T06:37:46.766Z,17.23
2019-06-26T06:42:49.182Z,20.65
2019-06-26T06:47:55.904Z,23.27
2019-06-26T06:52:58.976Z,19.00
2019-06-26T06:58:04.182Z,19.52
2019-06-26T07:03:15.567Z,19.70
2019-06-26T07:08:19.818Z,16.23
2019-06-26T07:13:30.596Z,17.02
2019-06-26T07:18:33.991Z,15.95
2019-06-26T07:23:36.757Z,19.90
2019-06-26T07:28:39.439Z,17.95
2019-06-26T07:33:45.853Z,14.63
2019-06-26T07:38:50.549Z,15.00
2019-06-26T07:43:53.345Z,19.57
2019-06-26T07:50:03.282Z,16.40
2019-06-26T07:55:11.896Z,13.45
2019-06-26T08:00:17.388Z,13.60
2019-06-26T08:05:21.311Z,16.93
2019-06-26T08:10:25.647Z,14.60
2019-06-26T08:15:28.561Z,19.80
2019-06-26T08:20:30.750Z,18.30
2019-06-26T08:25:33.928Z,19.98
2019-06-26T08:30:39.777Z,26.57
2019-06-26T08:35:45.465Z,15.63
2019-06-26T08:40:50.571Z,16.17
2019-06-26T08:45:54.180Z,18.85
2019-06-26T08:51:02.775Z,16.60
2019-06-26T08:56:06.641Z,14.53
2019-06-26T09:01:09.652Z,14.38
2019-06-26T09:06:13.176Z,18.27
2019-06-26T09:11:16.568Z,13.30
2019-06-26T09:16:19.798Z,18.32
2019-06-26T09:21:26.179Z,11.55
2019-06-26T09:26:32.818Z,13.60
2019-06-26T09:31:37.082Z,13.48
2019-06-26T09:36:42.251Z,11.78
2019-06-26T09:41:48.817Z,12.73
2019-06-26T09:46:50.899Z,10.53
2019-06-26T09:51:54.581Z,10.38
2019-06-26T09:56:59.811Z,14.75
2019-06-26T10:02:02.675Z,9.70
2019-06-26T10:07:07.526Z,10.38
2019-06-26T10:12:11.938Z,11.12
2019-06-26T10:17:16.678Z,8.13
2019-06-26T10:22:18.701Z,6.70
2019-06-26T10:27:23.794Z,7.08
2019-06-26T10:32:27.678Z,14.15
2019-06-26T10:37:34.561Z,8.15
2019-06-26T10:42:36.961Z,8.88
2019-06-26T10:47:41.802Z,14.05
2019-06-26T10:52:44.684Z,9.45
2019-06-26T10:57:47.152Z,9.73
2019-06-26T11:02:49.269Z,9.03
2019-06-26T11:07:53.331Z,15.68
2019-06-26T11:12:58.425Z,15.78
2019-06-26T11:18:00.523Z,9.43
2019-06-26T11:23:02.600Z,11.75
2019-06-26T11:28:09.209Z,12.33
2019-06-26T11:33:15.271Z,10.20
2019-06-26T11:38:17.405Z,14.00
2019-06-26T11:43:19.856Z,11.78
2019-06-26T11:48:22.385Z,7.92
2019-06-26T11:53:32.290Z,13.78
2019-06-26T11:58:38.257Z,11.68
2019-06-26T12:03:47.007Z,10.78
2019-06-26T12:08:49.898Z,9.20
2019-06-26T12:13:52.622Z,11.75
2019-06-26T12:18:54.639Z,12.23
2019-06-26T12:23:59.758Z,10.58
2019-06-26T12:29:01.854Z,11.03
2019-06-26T12:34:04.636Z,13.03
2019-06-26T12:39:06.969Z,11.30
2019-06-26T12:44:09.925Z,8.58
2019-06-26T12:49:15.285Z,13.58
2019-06-26T12:54:19.542Z,10.10
2019-06-26T12:59:24.897Z,11.03
2019-06-26T13:04:28.426Z,13.95
2019-06-26T13:09:31.713Z,13.58
2019-06-26T13:14:33.775Z,10.30
2019-06-26T13:19:35.950Z,11.28
2019-06-26T13:24:43.648Z,10.90
2019-06-26T13:29:46.557Z,13.03
2019-06-26T13:34:50.031Z,9.83
2019-06-26T13:39:52.201Z,13.55
2019-06-26T13:44:55.454Z,13.25
2019-06-26T13:49:57.496Z,10.00
2019-06-26T13:54:59.838Z,11.57
2019-06-26T14:00:01.860Z,9.88
2019-06-26T14:05:04.204Z,16.45
2019-06-26T14:10:09.414Z,9.65
2019-06-26T14:15:12.172Z,13.13
2019-06-26T14:20:14.374Z,15.00
2019-06-26T14:25:16.649Z,11.45
2019-06-26T14:30:21.254Z,17.42
2019-06-26T14:35:25.517Z,10.25
2019-06-26T14:40:27.587Z,13.15
2019-06-26T14:45:33.076Z,17.75
2019-06-26T14:50:35.102Z,10.18
2019-06-26T14:55:39.242Z,11.53
2019-06-26T15:00:41.259Z,13.53
2019-06-26T15:05:43.263Z,15.45
2019-06-26T15:10:47.075Z,22.60
2019-06-26T15:15:49.069Z,9.75
2019-06-26T15:20:51.423Z,11.03
2019-06-26T15:25:56.400Z,9.70
2019-06-26T15:30:59.135Z,13.50
2019-06-26T15:36:01.211Z,7.70
2019-06-26T15:41:03.761Z,10.32
2019-06-26T15:46:05.768Z,10.08
2019-06-26T15:51:07.843Z,11.73
2019-06-26T15:56:10.800Z,6.47
2019-06-26T16:01:16.726Z,10.15
2019-06-26T16:06:19.093Z,8.98
2019-06-26T16:11:21.481Z,10.40
2019-06-26T16:16:25.330Z,12.10
2019-06-26T16:21:30.790Z,9.55
2019-06-26T16:26:33.597Z,15.90
2019-06-26T16:31:37.484Z,11.08
2019-06-26T16:36:40.657Z,13.00
2019-06-26T16:41:42.923Z,14.30
2019-06-26T16:46:45.664Z,8.30
2019-06-26T16:51:49.440Z,12.70
2019-06-26T16:56:51.973Z,13.72
2019-06-26T17:01:54.012Z,16.00
2019-06-26T17:06:56.358Z,9.80
2019-06-26T17:11:58.781Z,12.90
2019-06-26T17:17:00.815Z,11.45
2019-06-26T17:22:07.030Z,10.80
2019-06-26T17:27:09.039Z,15.58
2019-06-26T17:32:11.409Z,11.43
2019-06-26T17:37:15.683Z,14.98
2019-06-26T17:42:19.119Z,10.03
2019-06-26T17:47:21.983Z,12.20
2019-06-26T17:52:24.045Z,16.23
2019-06-26T17:57:28.873Z,11.35
2019-06-26T18:02:31.877Z,10.90
2019-06-26T18:07:33.884Z,11.93
2019-06-26T18:12:39.523Z,12.50
2019-06-26T18:17:43.142Z,15.15
2019-06-26T18:22:45.207Z,16.70
2019-06-26T18:27:47.213Z,11.93
2019-06-26T18:33:09.389Z,12.37
2019-06-26T18:38:11.524Z,14.73
2019-06-26T18:43:15.901Z,16.10
2019-06-26T18:48:17.997Z,16.37
2019-06-26T18:53:27.662Z,18.40
2019-06-26T18:58:33.991Z,22.00
2019-06-26T19:03:40.222Z,15.28
2019-06-26T19:08:45.246Z,17.80
2019-06-26T19:13:48.076Z,16.23
2019-06-26T19:18:51.233Z,18.77
2019-06-26T19:24:09.157Z,14.78
2019-06-26T19:28:59.357Z,15.35
2019-06-26T19:34:02.128Z,14.23
2019-06-26T19:39:06.357Z,11.57
2019-06-26T19:44:11.344Z,12.98
2019-06-26T19:49:17.069Z,14.10
2019-06-26T19:54:27.066Z,12.07
2019-06-26T19:59:24.153Z,13.25
2019-06-26T20:04:26.138Z,13.85
2019-06-26T20:09:28.156Z,14.30
2019-06-26T20:14:32.063Z,13.08
2019-06-26T20:19:35.552Z,13.90
2019-06-26T20:24:44.610Z,13.80
2019-06-26T20:29:48.317Z,13.40
2019-06-26T20:34:53.297Z,13.13
2019-06-26T20:39:56.371Z,14.20
2019-06-26T20:45:15.034Z,12.78
2019-06-26T20:50:21.644Z,12.23
2019-06-26T20:55:25.326Z,11.83
2019-06-26T21:00:27.444Z,15.60
2019-06-26T21:05:31.366Z,14.50
2019-06-26T21:10:33.391Z,13.35
2019-06-26T21:15:36.721Z,12.13
2019-06-26T21:20:40.296Z,14.47
2019-06-26T21:25:42.336Z,13.35
2019-06-26T21:30:45.175Z,12.28
2019-06-26T21:35:48.629Z,12.37
2019-06-26T21:40:50.972Z,12.60
2019-06-26T21:45:54.491Z,16.12
2019-06-26T21:50:56.538Z,12.37
2019-06-26T21:55:59.356Z,11.15
2019-06-26T22:01:05.937Z,14.50
2019-06-26T22:06:08.263Z,12.50
2019-06-26T22:11:10.728Z,13.13
2019-06-26T22:16:13.422Z,13.95
2019-06-26T22:21:16.491Z,13.28
2019-06-26T22:26:18.980Z,12.75
2019-06-26T22:31:21.087Z,11.65
2019-06-26T22:36:24.218Z,13.10
2019-06-26T22:41:28.553Z,13.72
2019-06-26T22:46:30.701Z,13.25
2019-06-26T22:51:35.085Z,13.00
2019-06-26T22:56:38.571Z,16.10
2019-06-26T23:01:44.563Z,14.98
2019-06-26T23:06:47.681Z,13.32
2019-06-26T23:11:50.417Z,11.70
2019-06-26T23:16:54.370Z,12.58
2019-06-26T23:21:56.901Z,14.47
2019-06-26T23:27:05.092Z,17.35
2019-06-26T23:32:10.474Z,13.35
2019-06-26T23:37:12.844Z,17.02
2019-06-26T23:42:14.918Z,17.02
2019-06-26T23:47:18.203Z,13.28
2019-06-26T23:52:21.448Z,15.25
2019-06-26T23:57:36.074Z,12.43
